Time;durP1;ratioP1;P1;durP2;ratioP2;P2;SDS_P1;SDS_P2;PMS_P1;PMS_P2;Temp;Humidity;BMP_temperature;BMP_pressure;BME280_temperature;BME280_humidity;BME280_pressure;Samples;Min_cycle;Max_cycle;Signal;HPM_P1;HPM_P2
2023/08/09 00:00:08;;;;;;;6.50;4.20;;;;;;;17.88;75.48;100360.66;4148745;28;20427;-62
2023/08/09 00:02:11;;;;;;;12.43;4.72;;;;;;;17.86;75.88;100357.19;4138504;28;20046;-62
2023/08/09 00:04:14;;;;;;;6.75;4.70;;;;;;;17.85;76.10;100357.22;4155646;28;20046;-62
2023/08/09 00:06:17;;;;;;;6.82;4.35;;;;;;;17.87;75.94;100363.31;4156516;28;20049;-62
2023/08/09 00:08:20;;;;;;;6.20;4.75;;;;;;;17.87;76.14;100365.94;4139084;28;20038;-62
2023/08/09 00:10:23;;;;;;;9.85;5.75;;;;;;;17.87;76.00;100358.03;4146663;28;20423;-63
2023/08/09 00:12:27;;;;;;;6.90;4.30;;;;;;;17.87;75.52;100363.31;4159081;28;20048;-62
2023/08/09 00:14:30;;;;;;;6.13;4.72;;;;;;;17.81;75.55;100359.00;4155514;28;20403;-62
2023/08/09 00:16:33;;;;;;;7.82;3.83;;;;;;;17.82;75.47;100355.50;4154460;28;20076;-62
2023/08/09 00:18:36;;;;;;;8.68;4.43;;;;;;;17.84;75.32;100355.47;4150670;28;20141;-62
2023/08/09 00:20:39;;;;;;;6.15;4.20;;;;;;;17.80;75.74;100347.63;4146623;28;20038;-62
2023/08/09 00:22:42;;;;;;;10.75;4.53;;;;;;;17.80;75.72;100349.41;4150804;28;20049;-62
2023/08/09 00:24:45;;;;;;;7.93;4.10;;;;;;;17.85;75.51;100338.81;4154669;28;20498;-62
2023/08/09 00:26:48;;;;;;;6.22;3.40;;;;;;;17.82;75.15;100344.13;4155718;28;20542;-62
2023/08/09 00:28:53;;;;;;;12.63;4.93;;;;;;;17.75;75.50;100344.19;4146805;28;20048;-62
2023/08/09 00:30:56;;;;;;;6.25;3.50;;;;;;;17.75;75.62;100344.19;4153608;28;20065;-61
2023/08/09 00:32:58;;;;;;;8.00;3.25;;;;;;;17.75;75.97;100338.94;4148261;28;20049;-61
2023/08/09 00:35:01;;;;;;;5.72;3.58;;;;;;;17.76;75.84;100348.56;4148768;28;20348;-62
2023/08/09 00:37:05;;;;;;;4.88;3.17;;;;;;;17.77;75.80;100355.59;4149397;28;20045;-62
2023/08/09 00:39:08;;;;;;;6.55;3.38;;;;;;;17.77;75.85;100347.69;4154291;28;20128;-62
2023/08/09 00:41:11;;;;;;;5.63;3.28;;;;;;;17.75;75.72;100349.47;4155747;28;20033;-61
2023/08/09 00:43:14;;;;;;;6.40;2.85;;;;;;;17.76;75.52;100353.84;4137745;28;20045;-61
2023/08/09 00:45:18;;;;;;;8.50;3.05;;;;;;;17.72;75.53;100354.78;4155252;28;20065;-61
2023/08/09 00:47:21;;;;;;;4.47;2.60;;;;;;;17.71;75.99;100353.06;4137973;28;20066;-62
2023/08/09 00:49:24;;;;;;;7.43;3.30;;;;;;;17.72;76.24;100344.25;4144950;28;20129;-62
2023/08/09 00:51:27;;;;;;;7.30;3.35;;;;;;;17.71;76.52;100341.66;4153714;28;20053;-62
2023/08/09 00:53:31;;;;;;;8.57;2.85;;;;;;;17.72;76.23;100339.00;4149423;28;20045;-61
2023/08/09 00:55:35;;;;;;;9.02;3.20;;;;;;;17.71;76.67;100341.66;4152762;28;20038;-61
2023/08/09 00:57:38;;;;;;;6.13;3.35;;;;;;;17.68;76.84;100331.19;4138826;28;20050;-63
2023/08/09 00:59:41;;;;;;;4.30;2.95;;;;;;;17.70;76.85;100338.19;4150424;28;20674;-63
2023/08/09 01:01:46;;;;;;;5.15;2.95;;;;;;;17.72;76.30;100338.16;4141503;28;20122;-62
2023/08/09 01:03:49;;;;;;;5.25;2.88;;;;;;;17.71;76.76;100342.56;4152057;28;20491;-61
2023/08/09 01:06:03;;;;;;;3.55;2.15;;;;;;;17.71;76.23;100334.66;4143451;28;20146;-61
2023/08/09 01:08:13;;;;;;;7.65;3.00;;;;;;;17.70;76.50;100340.81;4155873;28;20128;-61
2023/08/09 01:10:26;;;;;;;5.03;3.13;;;;;;;17.71;76.23;100346.91;4141266;28;20125;-62
2023/08/09 01:12:35;;;;;;;5.55;2.15;;;;;;;17.66;76.36;100354.88;4138193;28;20124;-62
2023/08/09 01:14:42;;;;;;;3.72;2.05;;;;;;;17.66;76.17;100354.88;4140878;28;20034;-62
2023/08/09 01:16:47;;;;;;;5.65;2.42;;;;;;;17.64;76.04;100356.69;4148471;28;20525;-62
2023/08/09 01:18:52;;;;;;;3.85;2.40;;;;;;;17.65;76.17;100355.78;4149985;28;20034;-62
2023/08/09 01:20:55;;;;;;;4.00;2.17;;;;;;;17.66;75.82;100359.28;4152129;28;20041;-62
2023/08/09 01:23:03;;;;;;;5.22;2.30;;;;;;;17.68;75.47;100360.13;4148847;28;20573;-62
2023/08/09 01:25:08;;;;;;;4.43;2.47;;;;;;;17.66;75.46;100354.88;4146943;28;20037;-62
2023/08/09 01:27:11;;;;;;;5.78;2.58;;;;;;;17.65;75.29;100347.88;4145521;28;20084;-63
2023/08/09 01:29:15;;;;;;;7.13;1.85;;;;;;;17.64;74.44;100351.44;4147357;28;20093;-62
2023/08/09 01:31:18;;;;;;;6.22;2.17;;;;;;;17.66;74.00;100354.03;4151653;28;20487;-62
2023/08/09 01:33:21;;;;;;;3.28;1.95;;;;;;;17.64;73.89;100351.44;4134207;28;20038;-62
2023/08/09 01:35:26;;;;;;;3.38;2.10;;;;;;;17.66;74.12;100357.53;4159119;28;20033;-62
2023/08/09 01:37:34;;;;;;;6.50;2.78;;;;;;;17.68;73.58;100352.22;4152123;28;20042;-63
2023/08/09 01:39:39;;;;;;;4.35;2.10;;;;;;;17.67;74.13;100355.75;4153553;28;20037;-62
2023/08/09 01:41:45;;;;;;;5.47;2.25;;;;;;;17.67;74.45;100355.75;4158582;28;20037;-62
2023/08/09 01:43:48;;;;;;;5.25;2.10;;;;;;;17.65;74.55;100360.19;4149932;28;20068;-63
2023/08/09 01:45:53;;;;;;;6.10;2.45;;;;;;;17.62;74.92;100354.09;4156336;28;20033;-62
2023/08/09 01:47:56;;;;;;;4.05;2.38;;;;;;;17.63;74.02;100357.56;4150340;28;20103;-62
2023/08/09 01:49:59;;;;;;;2.50;1.90;;;;;;;17.67;73.82;100359.25;4154573;28;20053;-63
2023/08/09 01:52:04;;;;;;;2.97;1.90;;;;;;;17.60;73.81;100361.13;4151658;28;20104;-62
2023/08/09 01:54:08;;;;;;;6.85;2.30;;;;;;;17.64;73.74;100359.31;4141653;28;20458;-63
2023/08/09 01:56:11;;;;;;;6.32;2.28;;;;;;;17.66;73.81;100354.03;4149662;28;20050;-62
2023/08/09 01:58:15;;;;;;;3.90;2.20;;;;;;;17.64;74.14;100351.44;4139955;28;20096;-62
2023/08/09 02:00:19;;;;;;;4.85;2.20;;;;;;;17.72;73.88;100359.19;4144623;28;20577;-62
2023/08/09 02:02:22;;;;;;;4.20;2.00;;;;;;;17.76;72.26;100359.09;4143027;28;20040;-62
2023/08/09 02:04:25;;;;;;;5.47;1.88;;;;;;;17.65;72.67;100353.16;4155105;28;20072;-62
2023/08/09 02:06:28;;;;;;;4.60;1.90;;;;;;;17.70;72.77;100353.09;4144363;28;20046;-63
2023/08/09 02:08:31;;;;;;;7.78;2.05;;;;;;;17.66;72.71;100354.88;4127056;28;20053;-62
2023/08/09 02:10:34;;;;;;;4.65;2.03;;;;;;;17.66;72.84;100369.81;4146870;28;20042;-62
2023/08/09 02:12:36;;;;;;;5.03;2.22;;;;;;;17.60;73.38;100366.38;4147520;28;20041;-62
2023/08/09 02:14:41;;;;;;;4.35;2.05;;;;;;;17.58;73.20;100364.66;4151857;28;20495;-62
2023/08/09 02:16:43;;;;;;;4.00;1.65;;;;;;;17.55;73.45;100356.81;4144213;28;20057;-62
2023/08/09 02:18:48;;;;;;;6.25;2.13;;;;;;;17.57;74.00;100361.16;4143676;28;20496;-62
2023/08/09 02:20:52;;;;;;;8.38;2.42;;;;;;;17.54;74.46;100361.22;4124573;28;20567;-62
2023/08/09 02:22:55;;;;;;;3.33;1.55;;;;;;;17.54;74.77;100355.09;4147222;28;20407;-62
2023/08/09 02:24:57;;;;;;;4.82;2.50;;;;;;;17.52;74.95;100355.13;4142203;28;20037;-62
2023/08/09 02:27:00;;;;;;;2.28;1.70;;;;;;;17.50;75.21;100358.66;4138980;28;20105;-62
2023/08/09 02:29:03;;;;;;;4.88;2.13;;;;;;;17.48;75.10;100358.69;4128294;28;20156;-62
2023/08/09 02:31:08;;;;;;;3.08;1.90;;;;;;;17.49;75.34;100356.94;4145188;28;20506;-63
2023/08/09 02:33:11;;;;;;;;;;;;;;;17.42;75.62;100358.78;4144424;28;20034;-63
2023/08/09 02:35:15;;;;;;;3.88;1.90;;;;;;;17.47;75.22;100358.72;4147160;28;19961;-62
2023/08/09 02:37:18;;;;;;;5.60;2.60;;;;;;;17.56;74.50;100366.44;4149887;28;20050;-63
2023/08/09 02:39:21;;;;;;;6.03;1.70;;;;;;;17.59;73.97;100369.03;4147423;28;20065;-62
2023/08/09 02:41:24;;;;;;;4.15;2.08;;;;;;;17.55;73.98;100362.06;4129032;28;20413;-62
2023/08/09 02:43:27;;;;;;;4.75;1.88;;;;;;;17.52;74.27;100365.66;4149246;28;20069;-63
2023/08/09 02:45:30;;;;;;;4.28;2.00;;;;;;;17.55;73.66;100360.34;4147155;28;20603;-62
2023/08/09 02:47:36;;;;;;;4.82;2.20;;;;;;;17.48;74.05;100356.06;4143209;28;20026;-62
2023/08/09 02:49:38;;;;;;;3.72;1.92;;;;;;;17.54;73.87;100355.97;4135070;28;20072;-63
2023/08/09 02:51:42;;;;;;;6.47;2.33;;;;;;;17.50;74.17;100356.91;4144358;28;20381;-62
2023/08/09 02:54:01;;;;;;;2.58;1.88;;;;;;;17.48;73.95;100349.94;4154376;28;20488;-62
2023/08/09 02:56:05;;;;;;;7.75;1.88;;;;;;;17.39;74.58;100357.09;4149016;28;20052;-62
2023/08/09 02:58:07;;;;;;;7.88;2.47;;;;;;;17.38;74.79;100355.34;4151427;28;20045;-62
2023/08/09 03:00:15;;;;;;;3.75;1.92;;;;;;;17.39;74.53;100362.34;4156051;28;20068;-63
2023/08/09 03:02:18;;;;;;;6.03;2.17;;;;;;;17.40;74.89;100361.41;4149301;28;20124;-62
2023/08/09 03:04:22;;;;;;;3.03;1.70;;;;;;;17.51;74.14;100360.38;4160999;28;20124;-63
2023/08/09 03:06:26;;;;;;;3.88;1.90;;;;;;;17.47;74.15;100359.59;4152566;28;20031;-62
2023/08/09 03:08:28;;;;;;;4.10;2.00;;;;;;;17.34;74.27;100366.78;4148593;28;20041;-63
2023/08/09 03:10:31;;;;;;;5.85;2.65;;;;;;;17.36;74.46;100375.53;4160385;28;20038;-62
2023/08/09 03:12:34;;;;;;;3.25;1.75;;;;;;;17.41;74.28;100376.31;4141259;28;20479;-62
2023/08/09 03:14:37;;;;;;;4.25;2.00;;;;;;;17.40;73.91;100373.72;4150666;28;20064;-62
2023/08/09 03:16:41;;;;;;;5.10;2.10;;;;;;;17.46;73.10;100376.22;4140747;28;20034;-63
2023/08/09 03:18:44;;;;;;;6.88;2.60;;;;;;;17.43;73.70;100365.78;4129604;28;20101;-63
2023/08/09 03:20:48;;;;;;;4.75;1.90;;;;;;;17.56;72.35;100374.34;4152287;28;20037;-62
2023/08/09 03:22:51;;;;;;;7.35;2.63;;;;;;;17.59;71.78;100371.66;4138667;28;20029;-61
2023/08/09 03:24:54;;;;;;;2.85;1.95;;;;;;;17.49;72.38;100375.31;4129622;28;20058;-60
2023/08/09 03:26:57;;;;;;;14.77;2.63;;;;;;;17.57;72.76;100378.72;4154923;28;20088;-61
2023/08/09 03:29:00;;;;;;;4.82;2.08;;;;;;;17.47;72.22;100366.59;4141688;28;20049;-61
2023/08/09 03:31:03;;;;;;;3.80;1.88;;;;;;;17.47;71.84;100380.59;4159345;28;20116;-61
2023/08/09 03:33:11;;;;;;;3.33;1.70;;;;;;;17.48;72.60;100371.84;4150666;28;20033;-60
2023/08/09 03:35:15;;;;;;;3.40;1.48;;;;;;;17.46;72.42;100384.13;4145403;28;20037;-61
2023/08/09 03:37:20;;;;;;;3.72;1.83;;;;;;;17.50;72.53;100380.56;4156479;28;20042;-61
2023/08/09 03:39:23;;;;;;;9.50;2.38;;;;;;;17.54;72.33;100378.75;4152184;28;20066;-60
2023/08/09 03:41:27;;;;;;;3.80;1.63;;;;;;;17.58;70.89;100378.69;4148693;28;20034;-60
2023/08/09 03:43:29;;;;;;;4.88;1.92;;;;;;;17.56;71.09;100384.84;4149461;28;20029;-60
2023/08/09 03:45:33;;;;;;;2.50;1.50;;;;;;;17.57;71.71;100376.09;4151138;28;20044;-60
2023/08/09 03:47:36;;;;;;;3.17;1.67;;;;;;;17.56;72.16;100372.56;4148857;28;20042;-63
2023/08/09 03:49:41;;;;;;;3.20;1.80;;;;;;;17.57;72.10;100368.19;4142987;28;20073;-63
2023/08/09 03:51:44;;;;;;;2.70;1.63;;;;;;;17.59;72.45;100369.03;4143214;28;20175;-63
2023/08/09 03:53:48;;;;;;;2.53;1.52;;;;;;;17.57;72.70;100378.72;4141149;28;20626;-63
2023/08/09 03:55:52;;;;;;;3.67;1.92;;;;;;;17.55;72.80;100377.84;4146208;28;20128;-61
2023/08/09 03:57:55;;;;;;;2.42;1.90;;;;;;;17.55;73.00;100377.84;4154662;28;20124;-60
2023/08/09 03:59:58;;;;;;;5.32;1.60;;;;;;;17.57;72.99;100378.72;4150320;28;20076;-60
2023/08/09 04:02:02;;;;;;;7.43;1.80;;;;;;;17.54;73.15;100381.38;4147103;28;20044;-61
2023/08/09 04:04:07;;;;;;;6.03;2.10;;;;;;;17.55;73.42;100380.47;4157752;28;20473;-60
2023/08/09 04:06:11;;;;;;;4.60;1.85;;;;;;;17.55;73.57;100388.38;4146491;28;20538;-61
2023/08/09 04:08:14;;;;;;;2.83;1.67;;;;;;;17.53;73.19;100384.91;4144386;28;20116;-61
2023/08/09 04:10:18;;;;;;;5.72;1.95;;;;;;;17.55;72.98;100385.72;4150906;28;20042;-61
2023/08/09 04:12:24;;;;;;;5.07;1.63;;;;;;;17.56;73.52;100385.72;4152495;28;20432;-61
2023/08/09 04:14:27;;;;;;;2.95;1.55;;;;;;;17.56;73.77;100385.72;4149315;28;20405;-61
2023/08/09 04:16:30;;;;;;;4.97;1.95;;;;;;;17.55;74.28;100386.63;4154952;28;20058;-60
2023/08/09 04:18:33;;;;;;;3.20;1.90;;;;;;;17.55;74.04;100388.38;4154463;28;20391;-60
2023/08/09 04:20:35;;;;;;;5.68;2.20;;;;;;;17.55;73.84;100383.09;4148516;28;20128;-61
2023/08/09 04:22:38;;;;;;;5.43;2.35;;;;;;;17.57;73.88;100383.97;4149560;28;20053;-61
2023/08/09 04:24:41;;;;;;;3.63;2.03;;;;;;;17.55;73.91;100378.75;4146062;28;20045;-61
2023/08/09 04:26:46;;;;;;;2.75;1.80;;;;;;;17.54;73.11;100384.03;4146608;28;20149;-60
2023/08/09 04:28:49;;;;;;;3.00;1.88;;;;;;;17.54;72.90;100384.88;4149326;28;20047;-60
2023/08/09 04:30:52;;;;;;;6.35;2.20;;;;;;;17.56;73.21;100384.84;4147339;28;20037;-60
2023/08/09 04:32:55;;;;;;;3.08;1.60;;;;;;;17.57;73.41;100391.84;4144444;28;20061;-61
2023/08/09 04:34:59;;;;;;;7.03;1.98;;;;;;;17.54;73.90;100382.25;4145979;28;20416;-60
2023/08/09 04:37:01;;;;;;;4.82;1.95;;;;;;;17.52;74.28;100386.69;4150379;28;20124;-60
2023/08/09 04:39:08;;;;;;;6.43;2.30;;;;;;;17.55;73.59;100378.75;4143556;28;20046;-62
2023/08/09 04:41:11;;;;;;;5.03;2.03;;;;;;;17.57;74.01;100386.59;4151599;28;20496;-62
2023/08/09 04:43:17;;;;;;;8.52;2.20;;;;;;;17.59;73.42;100385.66;4149037;28;20129;-62
2023/08/09 04:45:19;;;;;;;3.72;1.95;;;;;;;17.59;73.26;100390.06;4148980;28;20066;-62
2023/08/09 04:47:22;;;;;;;5.25;1.70;;;;;;;17.62;73.10;100390.00;4146558;28;20049;-61
2023/08/09 04:49:26;;;;;;;4.88;1.83;;;;;;;17.65;72.60;100387.31;4158502;28;20183;-61
2023/08/09 04:51:28;;;;;;;8.65;2.03;;;;;;;17.67;71.94;100376.78;4157363;28;20080;-62
2023/08/09 04:53:31;;;;;;;8.57;2.22;;;;;;;17.67;71.48;100379.41;4145869;28;20061;-61
2023/08/09 04:55:34;;;;;;;5.47;2.42;;;;;;;17.68;71.55;100379.38;4153472;28;20128;-61
2023/08/09 04:57:36;;;;;;;8.50;3.45;;;;;;;17.71;70.78;100386.34;4143353;28;20041;-61
2023/08/09 04:59:41;;;;;;;12.05;3.30;;;;;;;17.75;70.89;100375.75;4147704;28;20040;-61
2023/08/09 05:01:44;;;;;;;7.10;2.80;;;;;;;17.78;70.21;100375.72;4155327;28;20096;-61
2023/08/09 05:03:46;;;;;;;7.70;2.53;;;;;;;17.79;69.98;100372.19;4152512;28;20502;-61
2023/08/09 05:05:49;;;;;;;10.38;2.90;;;;;;;17.78;69.31;100378.38;4154816;28;20034;-61
2023/08/09 05:07:53;;;;;;;8.90;3.00;;;;;;;17.80;68.86;100381.81;4139388;28;20104;-61
2023/08/09 05:10:00;;;;;;;9.85;3.30;;;;;;;17.82;68.75;100375.69;4152787;28;20597;-61
2023/08/09 05:12:04;;;;;;;8.48;2.60;;;;;;;17.87;68.96;100379.09;4156174;28;20048;-61
2023/08/09 05:14:07;;;;;;;9.45;2.33;;;;;;;17.86;68.45;100382.59;4153223;28;20459;-61
2023/08/09 05:16:11;;;;;;;5.20;2.55;;;;;;;17.89;68.86;100388.69;4151616;28;20041;-61
2023/08/09 05:18:14;;;;;;;7.93;1.92;;;;;;;17.89;68.58;100387.84;4144720;28;20563;-61
2023/08/09 05:20:17;;;;;;;7.28;2.38;;;;;;;17.89;67.82;100393.09;4145044;28;20080;-61
2023/08/09 05:22:20;;;;;;;8.55;2.97;;;;;;;17.96;68.04;100397.38;4152432;28;20057;-61
2023/08/09 05:24:22;;;;;;;10.55;2.55;;;;;;;17.98;67.51;100400.00;4154615;28;20038;-61
2023/08/09 05:26:25;;;;;;;5.55;2.58;;;;;;;18.01;67.49;100395.53;4155932;28;20484;-61
2023/08/09 05:28:28;;;;;;;5.47;2.03;;;;;;;18.04;67.40;100402.50;4153511;28;20034;-62
2023/08/09 05:30:31;;;;;;;3.65;1.83;;;;;;;18.07;67.10;100405.94;4152936;28;20038;-61
2023/08/09 05:32:35;;;;;;;6.68;2.35;;;;;;;18.09;66.90;100406.78;4151585;28;20038;-61
2023/08/09 05:34:38;;;;;;;6.93;2.22;;;;;;;18.11;66.82;100404.13;4148852;28;20381;-62
2023/08/09 05:36:41;;;;;;;4.97;2.10;;;;;;;18.14;67.04;100412.81;4150387;28;20092;-62
2023/08/09 05:38:44;;;;;;;4.47;2.03;;;;;;;18.19;66.88;100420.63;4156289;28;20043;-61
2023/08/09 05:40:47;;;;;;;4.68;1.75;;;;;;;18.22;67.08;100414.44;4148904;28;20507;-62
2023/08/09 05:42:50;;;;;;;5.65;1.90;;;;;;;18.22;66.93;100417.09;4154409;28;20044;-62
2023/08/09 05:44:54;;;;;;;5.60;2.05;;;;;;;18.21;67.25;100415.34;4157075;28;20041;-61
2023/08/09 05:46:57;;;;;;;2.55;1.70;;;;;;;18.22;67.42;100425.84;4152859;28;20467;-62
2023/08/09 05:49:06;;;;;;;4.70;1.30;;;;;;;18.23;67.51;100424.09;4152232;28;20642;-62
2023/08/09 05:51:09;;;;;;;2.72;1.50;;;;;;;18.25;67.69;100430.19;4156347;28;20042;-63
2023/08/09 05:53:12;;;;;;;4.50;2.00;;;;;;;18.25;67.90;100430.19;4156758;28;20478;-61
2023/08/09 05:55:15;;;;;;;4.45;1.80;;;;;;;18.26;68.52;100426.66;4156862;28;20483;-62
2023/08/09 05:57:18;;;;;;;2.67;1.50;;;;;;;18.26;68.15;100430.16;4155512;28;20061;-61
2023/08/09 05:59:21;;;;;;;3.13;1.55;;;;;;;18.29;68.10;100440.63;4156293;28;20419;-61
2023/08/09 06:01:24;;;;;;;5.32;1.70;;;;;;;18.29;67.74;100443.25;4155307;28;20038;-61
2023/08/09 06:03:27;;;;;;;3.83;1.98;;;;;;;18.30;68.15;100437.09;4143839;28;20133;-61
2023/08/09 06:05:31;;;;;;;3.88;1.75;;;;;;;18.33;68.54;100446.72;4142548;28;20042;-61
2023/08/09 06:07:34;;;;;;;3.45;1.60;;;;;;;18.33;68.87;100440.59;4151772;28;20092;-62
2023/08/09 06:09:37;;;;;;;5.28;1.75;;;;;;;18.36;68.44;100436.13;4153857;28;20134;-62
2023/08/09 06:11:41;;;;;;;;;;;;;;;18.29;68.91;100440.63;4157100;28;20089;-61
2023/08/09 06:13:47;;;;;;;5.47;1.70;;;;;;;18.32;68.82;100444.97;4156474;28;19921;-62
2023/08/09 06:15:50;;;;;;;3.63;1.60;;;;;;;18.35;69.03;100449.31;4148601;28;20034;-62
2023/08/09 06:17:53;;;;;;;4.00;1.63;;;;;;;18.38;68.54;100444.84;4157232;28;20120;-62
2023/08/09 06:19:56;;;;;;;4.72;1.70;;;;;;;18.40;69.30;100453.59;4152622;28;20044;-62
2023/08/09 06:22:00;;;;;;;3.95;1.40;;;;;;;18.42;69.33;100446.53;4151627;28;20048;-62
2023/08/09 06:24:05;;;;;;;4.88;1.75;;;;;;;18.41;69.23;100447.47;4151520;28;20506;-62
2023/08/09 06:26:08;;;;;;;6.68;1.52;;;;;;;18.42;68.84;100449.16;4146693;28;20580;-62
2023/08/09 06:28:11;;;;;;;3.13;1.60;;;;;;;18.43;68.70;100452.69;4146473;28;20128;-62
2023/08/09 06:30:14;;;;;;;3.22;1.58;;;;;;;18.42;69.51;100453.56;4149725;28;20495;-61
2023/08/09 06:32:15;;;;;;;4.78;1.77;;;;;;;18.43;68.63;100452.69;4157770;28;20674;-61
2023/08/09 06:34:18;;;;;;;2.65;1.40;;;;;;;18.44;68.54;100452.66;4158753;28;20113;-61
2023/08/09 06:36:21;;;;;;;6.72;2.33;;;;;;;18.44;68.67;100460.56;4156445;28;20443;-61
2023/08/09 06:38:26;;;;;;;5.47;2.00;;;;;;;18.46;68.82;100463.16;4154776;28;20065;-61
2023/08/09 06:40:29;;;;;;;2.55;1.30;;;;;;;18.45;69.01;100459.63;4153589;28;20491;-61
2023/08/09 06:42:32;;;;;;;4.78;1.70;;;;;;;18.46;69.24;100458.75;4147383;28;20057;-61
2023/08/09 06:44:36;;;;;;;5.78;1.70;;;;;;;18.47;69.50;100459.59;4153520;28;20041;-62
2023/08/09 06:46:39;;;;;;;3.67;1.60;;;;;;;18.47;69.00;100463.13;4152740;28;20125;-61
2023/08/09 06:48:42;;;;;;;3.03;1.50;;;;;;;18.48;69.31;100456.94;4147334;28;20125;-60
2023/08/09 06:50:45;;;;;;;5.80;1.67;;;;;;;18.52;68.67;100464.81;4143237;28;20058;-60
2023/08/09 06:52:48;;;;;;;6.50;1.55;;;;;;;18.52;68.56;100470.09;4149516;28;20563;-61
2023/08/09 06:54:52;;;;;;;2.20;1.30;;;;;;;18.52;69.18;100468.31;4138776;28;20041;-60
2023/08/09 06:56:56;;;;;;;4.45;1.50;;;;;;;18.52;68.99;100467.44;4146736;28;20088;-60
2023/08/09 06:58:59;;;;;;;2.03;1.30;;;;;;;18.53;68.79;100463.91;4157946;28;20069;-62
2023/08/09 07:01:03;;;;;;;2.63;1.13;;;;;;;18.56;68.90;100469.09;4158541;28;20124;-60
2023/08/09 07:03:06;;;;;;;1.65;1.20;;;;;;;18.58;68.48;100467.31;4154796;28;20046;-60
2023/08/09 07:05:14;;;;;;;5.13;1.88;;;;;;;18.63;68.27;100471.63;4160084;28;20041;-60
2023/08/09 07:07:17;;;;;;;3.05;1.25;;;;;;;18.67;67.57;100462.75;4149329;28;20491;-61
2023/08/09 07:09:20;;;;;;;3.47;1.73;;;;;;;18.77;67.87;100467.84;4149416;28;20046;-59
2023/08/09 07:11:23;;;;;;;4.20;1.30;;;;;;;18.77;67.66;100466.06;4152908;28;20042;-60
2023/08/09 07:13:27;;;;;;;4.70;1.40;;;;;;;18.82;66.95;100466.84;4154450;28;20038;-59
2023/08/09 07:15:30;;;;;;;5.05;1.92;;;;;;;18.85;66.59;100476.44;4152951;28;20072;-61
2023/08/09 07:17:33;;;;;;;3.35;1.50;;;;;;;18.91;66.28;100472.84;4157474;28;20051;-59
2023/08/09 07:19:35;;;;;;;3.13;1.25;;;;;;;18.94;66.18;100481.56;4147784;28;20049;-59
2023/08/09 07:21:38;;;;;;;4.22;1.42;;;;;;;18.98;65.68;100477.09;4158663;28;20041;-59
2023/08/09 07:23:41;;;;;;;2.30;1.30;;;;;;;19.04;65.70;100484.00;4158953;28;20157;-59
2023/08/09 07:26:00;;;;;;;4.85;1.30;;;;;;;19.03;65.48;100480.53;4134969;28;20050;-61
2023/08/09 07:28:06;;;;;;;4.65;1.58;;;;;;;19.04;65.40;100489.28;4145002;28;20042;-62
2023/08/09 07:30:10;;;;;;;3.10;1.40;;;;;;;19.09;65.15;100488.28;4148013;28;20533;-62
2023/08/09 07:32:13;;;;;;;3.15;1.58;;;;;;;19.14;65.02;100494.34;4147419;28;20042;-62
2023/08/09 07:34:16;;;;;;;4.00;1.65;;;;;;;19.17;65.01;100489.00;4142351;28;20042;-62
2023/08/09 07:36:19;;;;;;;3.85;1.42;;;;;;;19.25;65.09;100490.63;4131856;28;20445;-61
2023/08/09 07:38:22;;;;;;;3.67;1.30;;;;;;;19.25;64.92;100512.56;4139905;28;20031;-62
2023/08/09 07:40:25;;;;;;;2.78;1.33;;;;;;;19.29;64.95;100508.09;4145171;28;20072;-62
2023/08/09 07:42:27;;;;;;;2.13;1.48;;;;;;;19.33;64.94;100515.03;4149032;28;20148;-62
2023/08/09 07:44:31;;;;;;;4.38;1.50;;;;;;;19.28;64.53;100511.63;4149227;28;20037;-61
2023/08/09 07:46:34;;;;;;;4.63;1.77;;;;;;;19.32;64.57;100508.03;4134099;28;20542;-62
2023/08/09 07:48:37;;;;;;;3.13;1.65;;;;;;;19.35;64.31;100516.75;4148379;28;20116;-62
2023/08/09 07:50:40;;;;;;;2.75;1.52;;;;;;;19.40;64.42;100516.63;4133074;28;20038;-62
2023/08/09 07:52:43;;;;;;;3.20;1.67;;;;;;;19.38;64.67;100513.19;4132790;28;20042;-62
2023/08/09 07:54:46;;;;;;;4.47;2.28;;;;;;;19.38;64.54;100517.56;4132840;28;20559;-62
2023/08/09 07:56:49;;;;;;;3.05;1.20;;;;;;;19.40;64.75;100511.38;4132249;28;20475;-62
2023/08/09 07:58:53;;;;;;;3.95;1.83;;;;;;;19.45;64.47;100514.78;4140612;28;20031;-62
2023/08/09 08:00:57;;;;;;;;;;;;;;;19.45;64.58;100516.53;4133342;28;20070;-62
2023/08/09 08:03:00;;;;;;;4.65;1.13;;;;;;;19.37;64.55;100521.97;4143535;28;20012;-62
2023/08/09 08:05:03;;;;;;;1.63;1.33;;;;;;;19.43;63.94;100526.25;4147650;28;20092;-62
2023/08/09 08:07:09;;;;;;;3.25;1.38;;;;;;;19.42;63.76;100527.16;4146914;28;20141;-62
2023/08/09 08:09:12;;;;;;;2.50;1.00;;;;;;;19.47;63.80;100535.84;4147441;28;20108;-62
2023/08/09 08:11:15;;;;;;;2.13;1.08;;;;;;;19.41;63.78;100534.19;4148829;28;20475;-62
2023/08/09 08:13:18;;;;;;;2.95;1.52;;;;;;;19.40;64.22;100537.72;4147340;28;20038;-62
2023/08/09 08:15:22;;;;;;;2.83;1.55;;;;;;;19.45;64.16;100548.16;4154334;28;20126;-62
2023/08/09 08:17:26;;;;;;;5.05;1.40;;;;;;;19.50;64.82;100539.25;4151692;28;20134;-62
2023/08/09 08:19:29;;;;;;;1.52;1.20;;;;;;;19.51;64.15;100541.00;4155275;28;20065;-62
2023/08/09 08:23:45;;;;;;;4.05;1.40;;;;;;;19.70;64.24;100543.25;4123450;28;20572;-62
2023/08/09 08:25:48;;;;;;;1.52;1.00;;;;;;;19.76;63.62;100551.03;4124672;28;20049;-62
2023/08/09 08:27:51;;;;;;;1.30;1.02;;;;;;;19.79;64.04;100542.22;4118316;28;20073;-62
2023/08/09 08:29:54;;;;;;;3.55;1.40;;;;;;;19.83;63.62;100542.09;4116369;28;20442;-62
2023/08/09 08:31:57;;;;;;;4.47;2.15;;;;;;;19.85;63.18;100547.34;4100166;28;20416;-62
2023/08/09 08:34:01;;;;;;;2.65;1.30;;;;;;;19.90;62.73;100545.44;4108307;28;20038;-62
2023/08/09 08:36:06;;;;;;;4.00;1.60;;;;;;;19.93;63.68;100547.16;4115147;28;20113;-62
2023/08/09 08:38:28;;;;;;;2.85;1.30;;;;;;;19.92;62.94;100545.41;4130011;28;20595;-62
2023/08/09 08:40:31;;;;;;;1.23;1.13;;;;;;;19.96;62.58;100547.97;4114923;28;20043;-62
2023/08/09 08:42:33;;;;;;;3.63;1.25;;;;;;;20.04;62.58;100551.28;4130822;28;20049;-62
2023/08/09 08:44:36;;;;;;;3.90;1.42;;;;;;;20.14;62.43;100556.34;4116142;28;20385;-62
2023/08/09 08:46:39;;;;;;;3.13;1.67;;;;;;;20.16;62.31;100550.13;4110660;28;20034;-62
2023/08/09 08:48:47;;;;;;;3.53;1.10;;;;;;;20.18;61.85;100553.59;4115296;28;20035;-63
2023/08/09 08:50:55;;;;;;;4.38;1.35;;;;;;;20.23;61.81;100546.44;4114751;28;20098;-63
2023/08/09 08:52:59;;;;;;;2.53;1.33;;;;;;;20.24;61.64;100552.59;4112717;28;20047;-62
2023/08/09 08:55:02;;;;;;;;;;;;;;;20.17;61.47;100554.50;4107223;28;20043;-62
2023/08/09 08:57:05;;;;;;;4.68;1.40;;;;;;;20.14;61.79;100557.22;4111959;28;20292;-62
2023/08/09 08:59:09;;;;;;;1.92;1.50;;;;;;;20.27;61.60;100564.81;4098573;29;20050;-62
2023/08/09 09:01:12;;;;;;;4.25;1.27;;;;;;;20.34;61.89;100558.50;4115953;28;20039;-62
2023/08/09 09:03:15;;;;;;;3.17;1.35;;;;;;;20.33;61.59;100556.78;4115792;28;20038;-62
2023/08/09 09:05:19;;;;;;;2.63;1.00;;;;;;;20.39;61.34;100560.13;4098471;29;20074;-63
2023/08/09 09:07:23;;;;;;;1.23;0.90;;;;;;;20.38;61.53;100560.16;4114049;28;20050;-63
2023/08/09 09:09:27;;;;;;;4.68;1.30;;;;;;;20.40;61.27;100567.16;4114425;28;20122;-63
2023/08/09 09:11:30;;;;;;;1.48;0.90;;;;;;;20.35;61.25;100563.72;4115433;28;20046;-63
2023/08/09 09:13:33;;;;;;;4.00;1.50;;;;;;;20.42;61.29;100560.97;4115807;28;20121;-62
2023/08/09 09:15:36;;;;;;;1.50;1.10;;;;;;;20.41;61.38;100562.72;4113360;28;20408;-62
2023/08/09 09:17:40;;;;;;;2.10;0.90;;;;;;;20.42;61.26;100566.25;4114325;28;20485;-63
2023/08/09 09:19:44;;;;;;;1.55;0.93;;;;;;;20.41;61.40;100565.34;4115443;28;20129;-62
2023/08/09 09:21:47;;;;;;;1.58;1.15;;;;;;;20.36;61.18;100567.25;4115101;28;20046;-63
2023/08/09 09:23:51;;;;;;;1.92;1.20;;;;;;;20.31;61.22;100563.84;4115593;28;20043;-62
2023/08/09 09:26:03;;;;;;;3.55;1.20;;;;;;;20.25;61.58;100570.16;4115536;28;20505;-63
2023/08/09 09:28:07;;;;;;;2.45;1.08;;;;;;;20.23;61.50;100572.81;4113324;28;20074;-62
2023/08/09 09:30:12;;;;;;;2.55;1.52;;;;;;;20.26;61.70;100571.88;4118136;28;20109;-63
2023/08/09 09:32:15;;;;;;;2.67;1.27;;;;;;;20.34;62.02;100569.06;4111149;28;20485;-63
2023/08/09 09:34:18;;;;;;;2.35;1.20;;;;;;;20.45;62.01;100574.09;4103947;28;20094;-63
2023/08/09 09:36:21;;;;;;;2.30;1.40;;;;;;;20.53;61.72;100570.34;4108128;28;20109;-63
2023/08/09 09:38:24;;;;;;;6.22;1.40;;;;;;;20.64;61.03;100571.84;4106054;28;20050;-63